Rain From: 21-07-2018 02:00 Until: 16:00 warning for: Rain Level: Yellow info button
suomi:
Sadevaroitus: Aamuyöstä alkaen voi sataa rankasti, yli 20 mm tunnissa.

svenska:
Nederbördsvarning: Från och med efternatten kan det förekomma synnerligen riklig nederbörd, mer än 20 mm i timmen.

english:
Heavy rain warning: From the early morning on heavy rain of more than 20 mm per hour can be expected. 

Forest fire From: 20-07-2018 23:00 Until: 21-07-2018 11:00 warning for: Forest fire Level: Yellow info button
suomi:
Metsäpalovaroitus on voimassa.

svenska:
Varning för skogsbrand gäller.

english:
A forest fire warning is in force. 


Thunder radar more information blitzortung!


Löydät sääaseman tiedot myös:

European Weather Network

Finland Weather Exchange

Weather Underground

AWEKAS



Weather Underground säähistoriasivu

Päivittäin yhteenveto Tammikuu 31, 2017 Yksiköt:  Englantilaiset    Metriset   Molemmat
« Edellinen Päivä
Seuraava Päivä »
Päivittäin Viikoittain Kuukausittain Vuosittain Mukautettu
  Korkea: Matala: Keskiarvo:
Lämpötila: TemperatureC °F -4.2 °F -2.1 °F
Kastepiste: DewpointC °F -5.0 °F -3.2 °F
Kosteus: Humidity % 86 % 91 %
Tuulen nopeus: WindSpeedKMH mph 0.0 mph 0.9 mph
Tuulenpuuska: WindSpeedGustKMH mph - -
Tuuli:- - West
Ilmanpaine: PressurehPa in 1013.1 in -
Sade: 0.0 in    
Historical Graphs
 
 
Taulukkotiedot Tammikuu 31, 2017
Aika Lämpötila Kastepiste Ilmanpaine Tuuli Tuulen nopeus Tuulenpuuska Kosteus Sademäärä (tunneittain)
TemperatureC °F DewpointC °F PressurehPa in Calm     Humidity % HourlyPrecipMM in
00:00 -0.5 °F -2.1 °F 1013.1 in West 3.2 mph 9.7 mph 89 % 0.0 in
00:15 -0.6 °F -2.0 °F 1013.4 in WNW 1.6 mph 11.3 mph 90 % 0.0 in
00:30 -0.7 °F -2.1 °F 1013.4 in SW 1.6 mph 8.0 mph 90 % 0.0 in
00:45 -0.8 °F -2.2 °F 1013.8 in WSW 1.6 mph 4.8 mph 90 % 0.0 in
01:00 -0.8 °F -2.3 °F 1013.8 in Calm   6.4 mph 90 % 0.0 in
01:15 -1.1 °F -2.5 °F 1014.1 in SW 1.6 mph 6.4 mph 90 % 0.0 in
01:30 -1.3 °F -2.6 °F 1014.4 in Calm     91 % 0.0 in
01:45 -1.5 °F -2.6 °F 1014.8 in Calm   4.8 mph 92 % 0.0 in
02:00 -1.5 °F -2.6 °F 1015.1 in West 1.6 mph 8.0 mph 92 % 0.0 in
02:15 -1.5 °F -2.6 °F 1015.1 in West 1.6 mph 8.0 mph 92 % 0.0 in
02:30 -1.3 °F -2.5 °F 1015.5 in WNW 1.6 mph 8.0 mph 92 % 0.0 in
02:45 -1.4 °F -2.5 °F 1015.5 in West 1.6 mph 8.0 mph 92 % 0.0 in
03:00 -1.3 °F -2.6 °F 1015.5 in WNW 1.6 mph 8.0 mph 91 % 0.0 in
03:15 -1.4 °F -2.7 °F 1015.8 in NW 1.6 mph 6.4 mph 91 % 0.0 in
03:30 -1.4 °F -2.7 °F 1015.8 in NW 1.6 mph 6.4 mph 91 % 0.0 in
03:45 -1.6 °F -2.8 °F 1016.1 in NW 1.6 mph 8.0 mph 91 % 0.0 in
04:00 -1.7 °F -3.0 °F 1016.1 in WNW 1.6 mph 6.4 mph 91 % 0.0 in
04:15 -1.7 °F -2.9 °F 1016.1 in NW 4.8 mph 8.0 mph 91 % 0.0 in
04:30 -1.8 °F -3.1 °F 1016.1 in NW 3.2 mph 8.0 mph 91 % 0.0 in
04:45 -1.8 °F -3.1 °F 1016.1 in WNW 1.6 mph 6.4 mph 91 % 0.0 in
05:00 -1.9 °F -3.2 °F 1016.5 in NW 3.2 mph 8.0 mph 91 % 0.0 in
05:15 -2.0 °F -3.3 °F 1016.5 in NW 4.8 mph 8.0 mph 91 % 0.0 in
05:30 -2.1 °F -3.3 °F 1016.5 in WNW 4.8 mph 6.4 mph 91 % 0.0 in
05:45 -2.2 °F -3.3 °F 1016.5 in WNW 4.8 mph 8.0 mph 92 % 0.0 in
06:00 -2.2 °F -3.3 °F 1016.8 in WNW 1.6 mph 6.4 mph 92 % 0.0 in
06:15 -2.3 °F -3.5 °F 1017.2 in Calm     92 % 0.0 in
06:30 -2.4 °F -3.6 °F 1017.2 in Calm     92 % 0.0 in
06:45 -2.8 °F -3.9 °F 1017.2 in Calm   4.8 mph 92 % 0.0 in
07:00 -2.8 °F -3.8 °F 1017.2 in Calm   3.2 mph 93 % 0.0 in
07:15 -2.9 °F -3.9 °F 1017.5 in Calm     93 % 0.0 in
07:30 -3.1 °F -4.0 °F 1017.5 in Calm     93 % 0.0 in
07:45 -3.3 °F -4.3 °F 1017.5 in Calm     93 % 0.0 in
08:00 -3.7 °F -4.6 °F 1017.5 in Calm     93 % 0.0 in
08:15 -3.7 °F -4.7 °F 1017.8 in Calm     93 % 0.0 in
08:30 -3.8 °F -4.8 °F 1017.8 in Calm     93 % 0.0 in
08:45 -4.0 °F -4.8 °F 1018.2 in Calm     94 % 0.0 in
09:00 -4.1 °F -4.9 °F 1018.2 in Calm     94 % 0.0 in
09:15 -4.2 °F -5.0 °F 1018.5 in Calm     94 % 0.0 in
09:30 -4.1 °F -4.7 °F 1018.8 in Calm   1.6 mph 95 % 0.0 in
09:45 -4.0 °F -4.7 °F 1018.8 in Calm     95 % 0.0 in
10:00 -4.0 °F -4.7 °F 1018.8 in Calm     95 % 0.0 in
10:15 -3.9 °F -4.6 °F 1018.8 in Calm     95 % 0.0 in
10:30 -3.9 °F -4.6 °F 1019.2 in Calm     95 % 0.0 in
10:45 -3.9 °F -4.6 °F 1019.2 in Calm     95 % 0.0 in
11:00 -3.8 °F -4.5 °F 1019.2 in Calm     95 % 0.0 in
11:15 -3.5 °F -4.2 °F 1019.5 in Calm     95 % 0.0 in
11:30 -3.2 °F -3.9 °F 1019.2 in Calm     95 % 0.0 in
11:45 -2.9 °F -3.6 °F 1019.2 in Calm     95 % 0.0 in
12:00 -2.7 °F -3.5 °F 1019.5 in Calm     94 % 0.0 in
12:15 -2.4 °F -3.2 °F 1019.5 in Calm     94 % 0.0 in
12:30 -1.8 °F -2.7 °F 1019.5 in Calm     94 % 0.0 in
12:45 -1.4 °F -2.4 °F 1019.5 in Calm   1.6 mph 93 % 0.0 in
13:00 -1.1 °F -2.2 °F 1019.2 in Calm   4.8 mph 92 % 0.0 in
13:15 -0.6 °F -2.0 °F 1019.2 in WSW 1.6 mph 9.7 mph 90 % 0.0 in
13:30 -0.2 °F -1.8 °F 1018.8 in SSW 4.8 mph 9.7 mph 89 % 0.0 in
13:45 -0.1 °F -1.8 °F 1018.8 in SSW 3.2 mph 9.7 mph 88 % 0.0 in
14:00 0.0 °F -1.8 °F 1018.8 in SW 1.6 mph 8.0 mph 88 % 0.0 in
14:15 0.1 °F -1.6 °F 1018.8 in SW 1.6 mph 6.4 mph 88 % 0.0 in
14:30 -0.1 °F -1.8 °F 1018.8 in SSW 3.2 mph 8.0 mph 88 % 0.0 in
14:45 0.0 °F -1.8 °F 1018.8 in SSW 1.6 mph 4.8 mph 88 % 0.0 in
15:00 -0.1 °F -2.0 °F 1018.8 in Calm   6.4 mph 87 % 0.0 in
15:15 0.0 °F -2.1 °F 1019.2 in Calm   3.2 mph 86 % 0.0 in
15:30 -0.3 °F -2.2 °F 1018.8 in Calm     87 % 0.0 in
15:45 -0.6 °F -2.3 °F 1019.2 in Calm     88 % 0.0 in
15:50 -0.7 °F -2.4 °F 1019.2 in Calm     88 % 0.0 in
15:55 -0.8 °F -2.6 °F 1019.2 in Calm     88 % 0.0 in
16:06 -0.9 °F -2.6 °F 1019.2 in Calm     89 % 0.0 in
16:15 -1.2 °F -2.8 °F 1019.2 in Calm     89 % 0.0 in
16:30 -1.5 °F -2.9 °F 1019.2 in Calm     90 % 0.0 in
16:45 -1.8 °F -3.3 °F 1019.2 in Calm     90 % 0.0 in
17:00 -2.0 °F -3.1 °F 1018.8 in Calm     92 % 0.0 in
17:15 -2.1 °F -3.2 °F 1018.8 in Calm     92 % 0.0 in
17:30 -2.1 °F -3.2 °F 1018.8 in Calm   3.2 mph 92 % 0.0 in
17:45 -2.1 °F -3.0 °F 1018.8 in Calm     93 % 0.0 in
18:00 -2.1 °F -3.1 °F 1019.2 in Calm     93 % 0.0 in
18:15 -2.3 °F -3.4 °F 1019.2 in Calm     92 % 0.0 in
18:30 -2.4 °F -3.4 °F 1019.2 in Calm     93 % 0.0 in
18:45 -2.5 °F -3.5 °F 1018.8 in Calm     93 % 0.0 in
19:00 -2.7 °F -3.7 °F 1018.8 in Calm     93 % 0.0 in
19:15 -2.9 °F -3.9 °F 1018.8 in Calm     93 % 0.0 in
19:30 -3.3 °F -4.1 °F 1018.5 in Calm   1.6 mph 94 % 0.0 in
19:45 -3.2 °F -3.9 °F 1018.5 in Calm     95 % 0.0 in
20:00 -3.3 °F -4.1 °F 1018.5 in Calm     94 % 0.0 in
20:15 -3.5 °F -4.3 °F 1018.8 in Calm     94 % 0.0 in
20:30 -3.6 °F -4.4 °F 1018.5 in Calm     94 % 0.0 in
20:45 -3.7 °F -4.4 °F 1018.8 in Calm     95 % 0.0 in
21:00 -3.5 °F -4.2 °F 1018.5 in Calm   6.4 mph 95 % 0.0 in
21:15 -3.4 °F -4.1 °F 1018.5 in Calm   4.8 mph 95 % 0.0 in
21:30 -3.4 °F -4.1 °F 1018.8 in Calm     95 % 0.0 in
21:45 -3.3 °F -4.0 °F 1018.8 in Calm   4.8 mph 95 % 0.0 in
22:00 -3.2 °F -3.7 °F 1018.5 in SSW 1.6 mph 6.4 mph 96 % 0.0 in
22:15 -2.9 °F -3.4 °F 1018.5 in Calm   6.4 mph 96 % 0.0 in
22:30 -2.7 °F -3.2 °F 1018.8 in SSW 1.6 mph 4.8 mph 96 % 0.0 in
22:45 -2.6 °F -3.1 °F 1018.8 in Calm     96 % 0.0 in
23:00 -2.4 °F -3.0 °F 1018.5 in SSW 1.6 mph 8.0 mph 96 % 0.0 in
23:15 -2.1 °F -2.7 °F 1018.5 in SSW 3.2 mph 8.0 mph 96 % 0.0 in
23:30 -1.7 °F -2.3 °F 1018.5 in SW 3.2 mph 8.0 mph 96 % 0.0 in
23:45 -1.5 °F -2.1 °F 1018.5 in SSW 4.8 mph 11.3 mph 96 % 0.0 in
Esan sääasema
Terveisin Weather Underground - 2.75 mb

Alkuperäinen skripti  Jim McMurry - jmcmurry@mwt.net Sovitettu myös templatelle  Wim van der Kuil - Leuven-Template.eu

Laitteet joita käytämme:

Sääasema
Davis VP2

Sääasemaohjelma
Cumulus

Sääaseman tietokone
Asus EeePC

Palveluntarjoaja
Suncomet

Davis VP2

Cumulus

Asus EeePC

Suncomet